sensor_id;sensor_type;location;lat;lon;timestamp;P1;durP1;ratioP1;P2;durP2;ratioP2
80179;SDS011;69505;52.134;5.438;2024-02-16T00:01:41;2.95;;;1.60;;
80179;SDS011;69505;52.134;5.438;2024-02-16T00:04:07;3.33;;;1.67;;
80179;SDS011;69505;52.134;5.438;2024-02-16T00:06:34;2.83;;;1.63;;
80179;SDS011;69505;52.134;5.438;2024-02-16T00:09:01;3.70;;;1.67;;
80179;SDS011;69505;52.134;5.438;2024-02-16T00:11:28;4.10;;;1.63;;
80179;SDS011;69505;52.134;5.438;2024-02-16T00:13:55;6.72;;;1.80;;
80179;SDS011;69505;52.134;5.438;2024-02-16T00:16:22;4.07;;;1.70;;
80179;SDS011;69505;52.134;5.438;2024-02-16T00:18:48;3.58;;;1.63;;
80179;SDS011;69505;52.134;5.438;2024-02-16T00:21:15;3.55;;;1.70;;
80179;SDS011;69505;52.134;5.438;2024-02-16T00:23:43;4.93;;;1.90;;
80179;SDS011;69505;52.134;5.438;2024-02-16T00:26:11;3.58;;;1.73;;
80179;SDS011;69505;52.134;5.438;2024-02-16T00:28:37;4.25;;;1.75;;
80179;SDS011;69505;52.134;5.438;2024-02-16T00:31:04;5.25;;;1.70;;
80179;SDS011;69505;52.134;5.438;2024-02-16T00:33:32;3.97;;;1.63;;
80179;SDS011;69505;52.134;5.438;2024-02-16T00:36:00;4.82;;;1.42;;
80179;SDS011;69505;52.134;5.438;2024-02-16T00:38:26;3.75;;;1.70;;
80179;SDS011;69505;52.134;5.438;2024-02-16T00:40:53;5.32;;;1.70;;
80179;SDS011;69505;52.134;5.438;2024-02-16T00:43:20;4.30;;;1.73;;
80179;SDS011;69505;52.134;5.438;2024-02-16T00:45:46;4.70;;;2.10;;
80179;SDS011;69505;52.134;5.438;2024-02-16T00:48:15;3.97;;;1.70;;
80179;SDS011;69505;52.134;5.438;2024-02-16T00:50:42;4.47;;;1.80;;
80179;SDS011;69505;52.134;5.438;2024-02-16T00:53:09;5.80;;;1.85;;
80179;SDS011;69505;52.134;5.438;2024-02-16T00:55:36;3.65;;;2.08;;
80179;SDS011;69505;52.134;5.438;2024-02-16T00:58:03;3.60;;;1.65;;
80179;SDS011;69505;52.134;5.438;2024-02-16T01:00:30;4.25;;;1.83;;
80179;SDS011;69505;52.134;5.438;2024-02-16T01:02:57;4.18;;;1.77;;
80179;SDS011;69505;52.134;5.438;2024-02-16T01:05:24;4.75;;;1.95;;
80179;SDS011;69505;52.134;5.438;2024-02-16T01:07:51;5.28;;;2.10;;
80179;SDS011;69505;52.134;5.438;2024-02-16T01:10:18;4.65;;;1.95;;
80179;SDS011;69505;52.134;5.438;2024-02-16T01:12:45;4.85;;;1.73;;
80179;SDS011;69505;52.134;5.438;2024-02-16T01:15:11;5.63;;;2.30;;
80179;SDS011;69505;52.134;5.438;2024-02-16T01:17:38;3.15;;;1.92;;
80179;SDS011;69505;52.134;5.438;2024-02-16T01:20:06;3.67;;;1.50;;
80179;SDS011;69505;52.134;5.438;2024-02-16T01:22:37;3.75;;;1.63;;
80179;SDS011;69505;52.134;5.438;2024-02-16T01:25:04;4.57;;;2.03;;
80179;SDS011;69505;52.134;5.438;2024-02-16T01:27:31;4.22;;;1.83;;
80179;SDS011;69505;52.134;5.438;2024-02-16T01:29:58;3.22;;;2.05;;
80179;SDS011;69505;52.134;5.438;2024-02-16T01:32:26;3.67;;;1.52;;
80179;SDS011;69505;52.134;5.438;2024-02-16T01:34:53;3.97;;;1.75;;
80179;SDS011;69505;52.134;5.438;2024-02-16T01:37:19;3.28;;;1.52;;
80179;SDS011;69505;52.134;5.438;2024-02-16T01:39:46;5.18;;;1.65;;
80179;SDS011;69505;52.134;5.438;2024-02-16T01:42:13;9.48;;;2.13;;
80179;SDS011;69505;52.134;5.438;2024-02-16T01:44:39;4.03;;;1.73;;
80179;SDS011;69505;52.134;5.438;2024-02-16T01:47:06;3.35;;;1.67;;
80179;SDS011;69505;52.134;5.438;2024-02-16T01:49:32;4.50;;;1.90;;
80179;SDS011;69505;52.134;5.438;2024-02-16T01:52:00;4.28;;;2.00;;
80179;SDS011;69505;52.134;5.438;2024-02-16T01:54:26;4.32;;;1.80;;
80179;SDS011;69505;52.134;5.438;2024-02-16T01:56:53;3.38;;;1.70;;
80179;SDS011;69505;52.134;5.438;2024-02-16T01:59:21;3.20;;;1.60;;
80179;SDS011;69505;52.134;5.438;2024-02-16T02:01:48;2.95;;;1.92;;
80179;SDS011;69505;52.134;5.438;2024-02-16T02:04:15;3.35;;;1.60;;
80179;SDS011;69505;52.134;5.438;2024-02-16T02:06:42;4.45;;;1.67;;
80179;SDS011;69505;52.134;5.438;2024-02-16T02:09:09;4.50;;;2.08;;
80179;SDS011;69505;52.134;5.438;2024-02-16T02:11:36;3.42;;;1.77;;
80179;SDS011;69505;52.134;5.438;2024-02-16T02:14:06;3.88;;;1.75;;
80179;SDS011;69505;52.134;5.438;2024-02-16T02:16:33;4.38;;;1.92;;
80179;SDS011;69505;52.134;5.438;2024-02-16T02:19:13;4.82;;;1.63;;
80179;SDS011;69505;52.134;5.438;2024-02-16T02:21:39;5.05;;;2.13;;
80179;SDS011;69505;52.134;5.438;2024-02-16T02:24:07;2.88;;;1.50;;
80179;SDS011;69505;52.134;5.438;2024-02-16T02:26:35;3.38;;;1.67;;
80179;SDS011;69505;52.134;5.438;2024-02-16T02:29:02;4.47;;;1.95;;
80179;SDS011;69505;52.134;5.438;2024-02-16T02:31:28;3.72;;;1.77;;
80179;SDS011;69505;52.134;5.438;2024-02-16T02:33:55;4.70;;;2.00;;
80179;SDS011;69505;52.134;5.438;2024-02-16T02:36:22;4.35;;;1.92;;
80179;SDS011;69505;52.134;5.438;2024-02-16T02:38:49;4.25;;;1.70;;
80179;SDS011;69505;52.134;5.438;2024-02-16T02:41:16;4.35;;;2.17;;
80179;SDS011;69505;52.134;5.438;2024-02-16T02:43:43;6.95;;;2.20;;
80179;SDS011;69505;52.134;5.438;2024-02-16T02:46:14;3.65;;;2.15;;
80179;SDS011;69505;52.134;5.438;2024-02-16T02:48:42;4.07;;;2.08;;
80179;SDS011;69505;52.134;5.438;2024-02-16T02:51:15;6.05;;;1.80;;
80179;SDS011;69505;52.134;5.438;2024-02-16T02:53:42;4.47;;;1.83;;
80179;SDS011;69505;52.134;5.438;2024-02-16T02:56:09;6.10;;;1.85;;
80179;SDS011;69505;52.134;5.438;2024-02-16T02:58:36;4.25;;;1.80;;
80179;SDS011;69505;52.134;5.438;2024-02-16T03:01:05;3.90;;;1.88;;
80179;SDS011;69505;52.134;5.438;2024-02-16T03:03:34;4.03;;;2.35;;
80179;SDS011;69505;52.134;5.438;2024-02-16T03:06:01;3.83;;;1.98;;
80179;SDS011;69505;52.134;5.438;2024-02-16T03:08:28;4.28;;;1.77;;
80179;SDS011;69505;52.134;5.438;2024-02-16T03:10:55;4.07;;;2.03;;
80179;SDS011;69505;52.134;5.438;2024-02-16T03:13:21;4.47;;;2.03;;
80179;SDS011;69505;52.134;5.438;2024-02-16T03:15:48;3.65;;;1.70;;
80179;SDS011;69505;52.134;5.438;2024-02-16T03:18:14;5.00;;;2.15;;
80179;SDS011;69505;52.134;5.438;2024-02-16T03:20:41;3.60;;;1.95;;
80179;SDS011;69505;52.134;5.438;2024-02-16T03:23:12;4.25;;;1.85;;
80179;SDS011;69505;52.134;5.438;2024-02-16T03:25:39;4.40;;;2.15;;
80179;SDS011;69505;52.134;5.438;2024-02-16T03:28:05;3.22;;;1.63;;
80179;SDS011;69505;52.134;5.438;2024-02-16T03:30:36;3.75;;;1.83;;
80179;SDS011;69505;52.134;5.438;2024-02-16T03:33:03;3.65;;;1.98;;
80179;SDS011;69505;52.134;5.438;2024-02-16T03:35:30;5.95;;;1.85;;
80179;SDS011;69505;52.134;5.438;2024-02-16T03:37:56;3.42;;;1.60;;
80179;SDS011;69505;52.134;5.438;2024-02-16T03:40:23;5.15;;;2.33;;
80179;SDS011;69505;52.134;5.438;2024-02-16T03:42:52;8.55;;;1.90;;
80179;SDS011;69505;52.134;5.438;2024-02-16T03:45:18;3.78;;;2.03;;
80179;SDS011;69505;52.134;5.438;2024-02-16T03:47:45;3.40;;;1.90;;
80179;SDS011;69505;52.134;5.438;2024-02-16T03:50:12;4.45;;;1.90;;
80179;SDS011;69505;52.134;5.438;2024-02-16T03:52:41;3.33;;;1.90;;
80179;SDS011;69505;52.134;5.438;2024-02-16T03:55:07;4.22;;;1.92;;
80179;SDS011;69505;52.134;5.438;2024-02-16T03:57:34;3.95;;;2.13;;
80179;SDS011;69505;52.134;5.438;2024-02-16T04:00:00;3.90;;;1.98;;
80179;SDS011;69505;52.134;5.438;2024-02-16T04:02:28;5.40;;;2.25;;
80179;SDS011;69505;52.134;5.438;2024-02-16T04:04:55;4.78;;;2.17;;
80179;SDS011;69505;52.134;5.438;2024-02-16T04:07:21;4.32;;;1.77;;
80179;SDS011;69505;52.134;5.438;2024-02-16T04:09:48;3.50;;;1.83;;
80179;SDS011;69505;52.134;5.438;2024-02-16T04:12:14;6.05;;;2.15;;
80179;SDS011;69505;52.134;5.438;2024-02-16T04:14:41;3.30;;;1.70;;
80179;SDS011;69505;52.134;5.438;2024-02-16T04:17:09;5.75;;;2.03;;
80179;SDS011;69505;52.134;5.438;2024-02-16T04:19:36;5.85;;;2.08;;
80179;SDS011;69505;52.134;5.438;2024-02-16T04:22:03;4.32;;;1.80;;
80179;SDS011;69505;52.134;5.438;2024-02-16T04:24:30;5.72;;;1.95;;
80179;SDS011;69505;52.134;5.438;2024-02-16T04:26:57;5.15;;;1.85;;
80179;SDS011;69505;52.134;5.438;2024-02-16T04:29:23;3.65;;;2.13;;
80179;SDS011;69505;52.134;5.438;2024-02-16T04:31:50;3.67;;;1.90;;
80179;SDS011;69505;52.134;5.438;2024-02-16T04:34:16;4.07;;;2.10;;
80179;SDS011;69505;52.134;5.438;2024-02-16T04:36:43;5.65;;;2.42;;
80179;SDS011;69505;52.134;5.438;2024-02-16T04:39:10;5.25;;;2.25;;
80179;SDS011;69505;52.134;5.438;2024-02-16T04:41:38;4.78;;;1.75;;
80179;SDS011;69505;52.134;5.438;2024-02-16T04:44:04;3.85;;;2.08;;
80179;SDS011;69505;52.134;5.438;2024-02-16T04:46:31;3.63;;;1.85;;
80179;SDS011;69505;52.134;5.438;2024-02-16T04:48:58;4.63;;;1.98;;
80179;SDS011;69505;52.134;5.438;2024-02-16T04:51:24;3.83;;;1.90;;
80179;SDS011;69505;52.134;5.438;2024-02-16T04:53:51;5.00;;;2.20;;
80179;SDS011;69505;52.134;5.438;2024-02-16T04:56:18;4.90;;;1.98;;
80179;SDS011;69505;52.134;5.438;2024-02-16T04:58:45;2.97;;;1.73;;
80179;SDS011;69505;52.134;5.438;2024-02-16T05:01:12;3.33;;;1.52;;
80179;SDS011;69505;52.134;5.438;2024-02-16T05:03:39;3.55;;;2.10;;
80179;SDS011;69505;52.134;5.438;2024-02-16T05:06:07;3.45;;;1.80;;
80179;SDS011;69505;52.134;5.438;2024-02-16T05:08:34;3.50;;;1.85;;
80179;SDS011;69505;52.134;5.438;2024-02-16T05:11:01;3.78;;;2.10;;
80179;SDS011;69505;52.134;5.438;2024-02-16T05:13:28;5.38;;;1.95;;
80179;SDS011;69505;52.134;5.438;2024-02-16T05:15:55;4.05;;;1.90;;
80179;SDS011;69505;52.134;5.438;2024-02-16T05:18:22;4.07;;;1.90;;
80179;SDS011;69505;52.134;5.438;2024-02-16T05:20:49;3.63;;;2.13;;
80179;SDS011;69505;52.134;5.438;2024-02-16T05:23:15;6.35;;;2.22;;
80179;SDS011;69505;52.134;5.438;2024-02-16T05:25:42;3.75;;;1.90;;
80179;SDS011;69505;52.134;5.438;2024-02-16T05:28:08;5.45;;;1.98;;
80179;SDS011;69505;52.134;5.438;2024-02-16T05:30:35;3.33;;;1.75;;
80179;SDS011;69505;52.134;5.438;2024-02-16T05:33:02;4.35;;;1.90;;
80179;SDS011;69505;52.134;5.438;2024-02-16T05:35:29;4.38;;;1.98;;
80179;SDS011;69505;52.134;5.438;2024-02-16T05:38:00;4.68;;;2.08;;
80179;SDS011;69505;52.134;5.438;2024-02-16T05:40:33;4.18;;;1.77;;
80179;SDS011;69505;52.134;5.438;2024-02-16T05:43:11;3.90;;;2.05;;
80179;SDS011;69505;52.134;5.438;2024-02-16T05:45:38;6.15;;;2.35;;
80179;SDS011;69505;52.134;5.438;2024-02-16T05:48:08;3.70;;;1.70;;
80179;SDS011;69505;52.134;5.438;2024-02-16T05:50:36;4.22;;;2.15;;
80179;SDS011;69505;52.134;5.438;2024-02-16T05:53:04;4.50;;;2.13;;
80179;SDS011;69505;52.134;5.438;2024-02-16T05:55:30;6.82;;;2.15;;
80179;SDS011;69505;52.134;5.438;2024-02-16T05:57:57;4.03;;;2.00;;
80179;SDS011;69505;52.134;5.438;2024-02-16T06:00:23;6.53;;;2.13;;
80179;SDS011;69505;52.134;5.438;2024-02-16T06:02:50;5.15;;;2.20;;
80179;SDS011;69505;52.134;5.438;2024-02-16T06:05:17;4.40;;;1.90;;
80179;SDS011;69505;52.134;5.438;2024-02-16T06:07:43;4.07;;;1.95;;
80179;SDS011;69505;52.134;5.438;2024-02-16T06:10:10;5.68;;;2.20;;
80179;SDS011;69505;52.134;5.438;2024-02-16T06:12:38;3.75;;;2.03;;
80179;SDS011;69505;52.134;5.438;2024-02-16T06:15:06;3.80;;;1.80;;
80179;SDS011;69505;52.134;5.438;2024-02-16T06:17:33;4.45;;;2.20;;
80179;SDS011;69505;52.134;5.438;2024-02-16T06:20:00;4.78;;;2.13;;
80179;SDS011;69505;52.134;5.438;2024-02-16T06:22:27;3.78;;;1.83;;
80179;SDS011;69505;52.134;5.438;2024-02-16T06:24:54;4.93;;;1.90;;
80179;SDS011;69505;52.134;5.438;2024-02-16T06:27:20;4.80;;;2.13;;
80179;SDS011;69505;52.134;5.438;2024-02-16T06:29:47;4.50;;;2.28;;
80179;SDS011;69505;52.134;5.438;2024-02-16T06:32:14;3.92;;;1.83;;
80179;SDS011;69505;52.134;5.438;2024-02-16T06:37:12;5.57;;;2.17;;
80179;SDS011;69505;52.134;5.438;2024-02-16T06:39:38;3.90;;;1.98;;
80179;SDS011;69505;52.134;5.438;2024-02-16T06:42:06;4.18;;;2.25;;
80179;SDS011;69505;52.134;5.438;2024-02-16T06:44:32;4.68;;;2.22;;
80179;SDS011;69505;52.134;5.438;2024-02-16T06:46:59;3.63;;;2.00;;
80179;SDS011;69505;52.134;5.438;2024-02-16T06:49:26;4.10;;;2.17;;
80179;SDS011;69505;52.134;5.438;2024-02-16T06:51:53;5.88;;;2.25;;
80179;SDS011;69505;52.134;5.438;2024-02-16T06:54:20;9.13;;;2.33;;
80179;SDS011;69505;52.134;5.438;2024-02-16T06:56:47;4.07;;;2.03;;
80179;SDS011;69505;52.134;5.438;2024-02-16T06:59:14;7.88;;;2.08;;
80179;SDS011;69505;52.134;5.438;2024-02-16T07:01:40;6.15;;;2.33;;
80179;SDS011;69505;52.134;5.438;2024-02-16T07:04:07;4.28;;;1.98;;
80179;SDS011;69505;52.134;5.438;2024-02-16T07:06:35;5.05;;;1.95;;
80179;SDS011;69505;52.134;5.438;2024-02-16T07:09:02;4.35;;;2.33;;
80179;SDS011;69505;52.134;5.438;2024-02-16T07:11:29;4.93;;;2.50;;
80179;SDS011;69505;52.134;5.438;2024-02-16T07:13:55;3.75;;;1.98;;
80179;SDS011;69505;52.134;5.438;2024-02-16T07:16:22;3.55;;;2.00;;
80179;SDS011;69505;52.134;5.438;2024-02-16T07:18:49;6.03;;;2.08;;
80179;SDS011;69505;52.134;5.438;2024-02-16T07:21:15;4.28;;;2.10;;
80179;SDS011;69505;52.134;5.438;2024-02-16T07:23:45;6.97;;;2.20;;
80179;SDS011;69505;52.134;5.438;2024-02-16T07:26:11;4.60;;;2.08;;
80179;SDS011;69505;52.134;5.438;2024-02-16T07:28:39;3.85;;;2.20;;
80179;SDS011;69505;52.134;5.438;2024-02-16T07:31:06;5.38;;;2.22;;
80179;SDS011;69505;52.134;5.438;2024-02-16T07:33:32;5.63;;;2.30;;
80179;SDS011;69505;52.134;5.438;2024-02-16T07:35:59;4.38;;;2.00;;
80179;SDS011;69505;52.134;5.438;2024-02-16T07:38:26;4.60;;;2.17;;
80179;SDS011;69505;52.134;5.438;2024-02-16T07:40:54;4.43;;;2.10;;
80179;SDS011;69505;52.134;5.438;2024-02-16T07:43:21;5.47;;;2.10;;
80179;SDS011;69505;52.134;5.438;2024-02-16T07:45:50;4.57;;;1.95;;
80179;SDS011;69505;52.134;5.438;2024-02-16T07:48:20;5.05;;;2.42;;
80179;SDS011;69505;52.134;5.438;2024-02-16T07:50:48;4.53;;;2.33;;
80179;SDS011;69505;52.134;5.438;2024-02-16T07:55:43;5.78;;;2.17;;
80179;SDS011;69505;52.134;5.438;2024-02-16T07:58:10;5.55;;;2.20;;
80179;SDS011;69505;52.134;5.438;2024-02-16T08:00:36;2.97;;;2.00;;
80179;SDS011;69505;52.134;5.438;2024-02-16T08:03:15;4.40;;;2.45;;
80179;SDS011;69505;52.134;5.438;2024-02-16T08:05:42;5.68;;;2.30;;
80179;SDS011;69505;52.134;5.438;2024-02-16T08:08:08;5.97;;;2.17;;
80179;SDS011;69505;52.134;5.438;2024-02-16T08:10:35;3.55;;;2.00;;
80179;SDS011;69505;52.134;5.438;2024-02-16T08:13:02;4.13;;;2.22;;
80179;SDS011;69505;52.134;5.438;2024-02-16T08:15:29;5.18;;;2.20;;
80179;SDS011;69505;52.134;5.438;2024-02-16T08:17:56;4.18;;;2.20;;
80179;SDS011;69505;52.134;5.438;2024-02-16T08:20:23;5.95;;;2.45;;
80179;SDS011;69505;52.134;5.438;2024-02-16T08:22:50;4.63;;;2.42;;
80179;SDS011;69505;52.134;5.438;2024-02-16T08:25:17;7.07;;;2.45;;
80179;SDS011;69505;52.134;5.438;2024-02-16T08:27:43;4.50;;;2.42;;
80179;SDS011;69505;52.134;5.438;2024-02-16T08:30:10;3.35;;;2.45;;
80179;SDS011;69505;52.134;5.438;2024-02-16T08:32:38;4.82;;;2.38;;
80179;SDS011;69505;52.134;5.438;2024-02-16T08:35:05;5.72;;;2.58;;
80179;SDS011;69505;52.134;5.438;2024-02-16T08:37:32;4.03;;;2.40;;
80179;SDS011;69505;52.134;5.438;2024-02-16T08:40:00;3.55;;;2.47;;
80179;SDS011;69505;52.134;5.438;2024-02-16T08:42:27;5.93;;;2.40;;
80179;SDS011;69505;52.134;5.438;2024-02-16T08:44:54;4.32;;;2.40;;
80179;SDS011;69505;52.134;5.438;2024-02-16T08:47:21;6.93;;;2.58;;
80179;SDS011;69505;52.134;5.438;2024-02-16T08:49:48;6.07;;;2.35;;
80179;SDS011;69505;52.134;5.438;2024-02-16T08:52:15;5.38;;;2.10;;
80179;SDS011;69505;52.134;5.438;2024-02-16T08:54:42;4.95;;;2.35;;
80179;SDS011;69505;52.134;5.438;2024-02-16T08:57:10;7.07;;;2.38;;
80179;SDS011;69505;52.134;5.438;2024-02-16T08:59:37;6.72;;;2.42;;
80179;SDS011;69505;52.134;5.438;2024-02-16T09:02:03;4.10;;;2.30;;
80179;SDS011;69505;52.134;5.438;2024-02-16T09:04:30;5.38;;;2.28;;
80179;SDS011;69505;52.134;5.438;2024-02-16T09:06:57;6.43;;;2.40;;
80179;SDS011;69505;52.134;5.438;2024-02-16T09:09:24;4.40;;;2.38;;
80179;SDS011;69505;52.134;5.438;2024-02-16T09:11:50;4.82;;;2.85;;
80179;SDS011;69505;52.134;5.438;2024-02-16T09:14:17;6.97;;;2.25;;
80179;SDS011;69505;52.134;5.438;2024-02-16T09:16:44;5.15;;;2.53;;
80179;SDS011;69505;52.134;5.438;2024-02-16T09:19:11;6.28;;;2.47;;
80179;SDS011;69505;52.134;5.438;2024-02-16T09:21:37;4.55;;;2.42;;
80179;SDS011;69505;52.134;5.438;2024-02-16T09:24:04;8.98;;;2.80;;
80179;SDS011;69505;52.134;5.438;2024-02-16T09:26:36;6.22;;;2.45;;
80179;SDS011;69505;52.134;5.438;2024-02-16T09:29:03;4.18;;;2.50;;
80179;SDS011;69505;52.134;5.438;2024-02-16T09:31:30;5.55;;;2.53;;
80179;SDS011;69505;52.134;5.438;2024-02-16T09:33:56;6.90;;;2.67;;
80179;SDS011;69505;52.134;5.438;2024-02-16T09:36:23;7.03;;;2.72;;
80179;SDS011;69505;52.134;5.438;2024-02-16T09:38:50;6.30;;;2.78;;
80179;SDS011;69505;52.134;5.438;2024-02-16T09:41:17;7.32;;;3.20;;
80179;SDS011;69505;52.134;5.438;2024-02-16T09:43:43;8.48;;;3.05;;
80179;SDS011;69505;52.134;5.438;2024-02-16T09:46:10;6.53;;;2.70;;
80179;SDS011;69505;52.134;5.438;2024-02-16T09:48:37;6.85;;;3.00;;
80179;SDS011;69505;52.134;5.438;2024-02-16T09:51:06;6.18;;;2.90;;
80179;SDS011;69505;52.134;5.438;2024-02-16T09:53:34;6.38;;;2.88;;
80179;SDS011;69505;52.134;5.438;2024-02-16T09:56:00;5.07;;;2.85;;
80179;SDS011;69505;52.134;5.438;2024-02-16T09:58:28;6.20;;;2.83;;
80179;SDS011;69505;52.134;5.438;2024-02-16T10:00:55;8.30;;;3.10;;
80179;SDS011;69505;52.134;5.438;2024-02-16T10:05:52;9.18;;;3.22;;
80179;SDS011;69505;52.134;5.438;2024-02-16T10:08:30;6.65;;;3.33;;
80179;SDS011;69505;52.134;5.438;2024-02-16T10:11:03;7.60;;;3.95;;
80179;SDS011;69505;52.134;5.438;2024-02-16T10:13:31;9.13;;;3.65;;
80179;SDS011;69505;52.134;5.438;2024-02-16T10:16:05;7.00;;;3.03;;
80179;SDS011;69505;52.134;5.438;2024-02-16T10:18:36;5.38;;;2.90;;
80179;SDS011;69505;52.134;5.438;2024-02-16T10:21:04;5.22;;;2.85;;
80179;SDS011;69505;52.134;5.438;2024-02-16T10:23:31;7.93;;;3.10;;
80179;SDS011;69505;52.134;5.438;2024-02-16T10:26:01;5.32;;;3.00;;
80179;SDS011;69505;52.134;5.438;2024-02-16T10:28:28;6.45;;;3.17;;
80179;SDS011;69505;52.134;5.438;2024-02-16T10:30:57;8.85;;;3.55;;
80179;SDS011;69505;52.134;5.438;2024-02-16T10:33:28;6.35;;;3.28;;
80179;SDS011;69505;52.134;5.438;2024-02-16T10:35:58;6.78;;;3.30;;
80179;SDS011;69505;52.134;5.438;2024-02-16T10:38:29;5.55;;;3.38;;
80179;SDS011;69505;52.134;5.438;2024-02-16T10:40:56;9.20;;;3.67;;
80179;SDS011;69505;52.134;5.438;2024-02-16T10:43:27;8.82;;;4.03;;
80179;SDS011;69505;52.134;5.438;2024-02-16T10:45:56;7.68;;;3.70;;
80179;SDS011;69505;52.134;5.438;2024-02-16T10:48:23;6.65;;;4.03;;
80179;SDS011;69505;52.134;5.438;2024-02-16T10:50:50;9.20;;;3.38;;
80179;SDS011;69505;52.134;5.438;2024-02-16T10:53:22;7.32;;;3.90;;
80179;SDS011;69505;52.134;5.438;2024-02-16T10:55:52;8.10;;;3.67;;
80179;SDS011;69505;52.134;5.438;2024-02-16T10:58:18;7.88;;;4.35;;
80179;SDS011;69505;52.134;5.438;2024-02-16T11:00:52;9.60;;;3.90;;
80179;SDS011;69505;52.134;5.438;2024-02-16T11:03:24;7.22;;;3.95;;
80179;SDS011;69505;52.134;5.438;2024-02-16T11:05:51;8.77;;;4.05;;
80179;SDS011;69505;52.134;5.438;2024-02-16T11:08:20;8.07;;;4.10;;
80179;SDS011;69505;52.134;5.438;2024-02-16T11:10:59;5.90;;;4.05;;
80179;SDS011;69505;52.134;5.438;2024-02-16T11:13:28;6.90;;;4.03;;
80179;SDS011;69505;52.134;5.438;2024-02-16T11:15:58;8.85;;;4.38;;
80179;SDS011;69505;52.134;5.438;2024-02-16T11:20:54;11.57;;;4.78;;
80179;SDS011;69505;52.134;5.438;2024-02-16T11:23:27;7.50;;;4.35;;
80179;SDS011;69505;52.134;5.438;2024-02-16T11:26:01;7.75;;;4.63;;
80179;SDS011;69505;52.134;5.438;2024-02-16T11:28:32;8.07;;;4.68;;
80179;SDS011;69505;52.134;5.438;2024-02-16T11:31:00;8.30;;;4.30;;
80179;SDS011;69505;52.134;5.438;2024-02-16T11:35:57;7.95;;;4.07;;
80179;SDS011;69505;52.134;5.438;2024-02-16T11:38:25;6.15;;;4.30;;
80179;SDS011;69505;52.134;5.438;2024-02-16T11:40:53;6.47;;;3.97;;
80179;SDS011;69505;52.134;5.438;2024-02-16T11:43:24;7.80;;;4.63;;
80179;SDS011;69505;52.134;5.438;2024-02-16T11:45:51;7.10;;;4.18;;
80179;SDS011;69505;52.134;5.438;2024-02-16T11:48:22;7.38;;;4.43;;
80179;SDS011;69505;52.134;5.438;2024-02-16T11:50:58;8.45;;;4.43;;
80179;SDS011;69505;52.134;5.438;2024-02-16T11:53:26;9.02;;;4.72;;
80179;SDS011;69505;52.134;5.438;2024-02-16T11:55:52;7.85;;;4.90;;
80179;SDS011;69505;52.134;5.438;2024-02-16T11:58:19;6.72;;;4.55;;
80179;SDS011;69505;52.134;5.438;2024-02-16T12:00:46;8.88;;;4.97;;
80179;SDS011;69505;52.134;5.438;2024-02-16T12:05:55;11.52;;;5.03;;
80179;SDS011;69505;52.134;5.438;2024-02-16T12:08:23;8.38;;;4.53;;
80179;SDS011;69505;52.134;5.438;2024-02-16T12:10:51;7.55;;;4.80;;
80179;SDS011;69505;52.134;5.438;2024-02-16T12:13:18;7.97;;;4.78;;
80179;SDS011;69505;52.134;5.438;2024-02-16T12:15:46;7.22;;;4.70;;
80179;SDS011;69505;52.134;5.438;2024-02-16T12:18:24;8.10;;;4.63;;
80179;SDS011;69505;52.134;5.438;2024-02-16T12:23:29;8.20;;;4.50;;
80179;SDS011;69505;52.134;5.438;2024-02-16T12:25:59;6.40;;;3.75;;
80179;SDS011;69505;52.134;5.438;2024-02-16T12:28:27;8.00;;;4.13;;
80179;SDS011;69505;52.134;5.438;2024-02-16T12:30:55;7.45;;;4.18;;
80179;SDS011;69505;52.134;5.438;2024-02-16T12:33:25;6.88;;;3.67;;
80179;SDS011;69505;52.134;5.438;2024-02-16T12:35:52;7.22;;;3.92;;
80179;SDS011;69505;52.134;5.438;2024-02-16T12:38:20;4.63;;;2.95;;
80179;SDS011;69505;52.134;5.438;2024-02-16T12:40:46;7.05;;;3.42;;
80179;SDS011;69505;52.134;5.438;2024-02-16T12:43:13;5.43;;;3.03;;
80179;SDS011;69505;52.134;5.438;2024-02-16T12:45:40;4.85;;;2.60;;
80179;SDS011;69505;52.134;5.438;2024-02-16T12:48:07;3.65;;;1.77;;
80179;SDS011;69505;52.134;5.438;2024-02-16T12:50:36;2.78;;;1.40;;
80179;SDS011;69505;52.134;5.438;2024-02-16T12:53:08;2.60;;;1.60;;
80179;SDS011;69505;52.134;5.438;2024-02-16T12:55:35;3.05;;;1.42;;
80179;SDS011;69505;52.134;5.438;2024-02-16T12:58:02;2.38;;;1.25;;
80179;SDS011;69505;52.134;5.438;2024-02-16T13:00:29;3.83;;;1.70;;
80179;SDS011;69505;52.134;5.438;2024-02-16T13:02:57;3.10;;;1.60;;
80179;SDS011;69505;52.134;5.438;2024-02-16T13:05:23;3.75;;;1.42;;
80179;SDS011;69505;52.134;5.438;2024-02-16T13:07:50;2.50;;;1.25;;
80179;SDS011;69505;52.134;5.438;2024-02-16T13:10:17;2.75;;;1.60;;
80179;SDS011;69505;52.134;5.438;2024-02-16T13:12:44;2.83;;;1.35;;
80179;SDS011;69505;52.134;5.438;2024-02-16T13:15:11;2.63;;;1.40;;
80179;SDS011;69505;52.134;5.438;2024-02-16T13:17:53;2.40;;;1.38;;
80179;SDS011;69505;52.134;5.438;2024-02-16T13:20:22;2.72;;;1.20;;
80179;SDS011;69505;52.134;5.438;2024-02-16T13:22:49;2.65;;;1.52;;
80179;SDS011;69505;52.134;5.438;2024-02-16T13:25:16;2.53;;;1.50;;
80179;SDS011;69505;52.134;5.438;2024-02-16T13:27:57;3.75;;;1.52;;
80179;SDS011;69505;52.134;5.438;2024-02-16T13:30:23;2.72;;;1.30;;
80179;SDS011;69505;52.134;5.438;2024-02-16T13:32:50;4.72;;;1.55;;
80179;SDS011;69505;52.134;5.438;2024-02-16T13:35:17;3.83;;;1.65;;
80179;SDS011;69505;52.134;5.438;2024-02-16T13:37:47;4.68;;;2.00;;
80179;SDS011;69505;52.134;5.438;2024-02-16T13:40:13;2.53;;;1.45;;
80179;SDS011;69505;52.134;5.438;2024-02-16T13:42:40;3.00;;;1.40;;
80179;SDS011;69505;52.134;5.438;2024-02-16T13:45:08;4.22;;;1.85;;
80179;SDS011;69505;52.134;5.438;2024-02-16T13:47:36;3.10;;;1.30;;
80179;SDS011;69505;52.134;5.438;2024-02-16T13:50:03;3.38;;;1.40;;
80179;SDS011;69505;52.134;5.438;2024-02-16T13:52:30;3.05;;;1.60;;
80179;SDS011;69505;52.134;5.438;2024-02-16T13:54:56;3.45;;;1.60;;
80179;SDS011;69505;52.134;5.438;2024-02-16T13:57:23;3.22;;;1.40;;
80179;SDS011;69505;52.134;5.438;2024-02-16T13:59:49;3.55;;;1.50;;
80179;SDS011;69505;52.134;5.438;2024-02-16T14:02:16;2.67;;;1.25;;
80179;SDS011;69505;52.134;5.438;2024-02-16T14:04:43;2.72;;;1.40;;
80179;SDS011;69505;52.134;5.438;2024-02-16T14:07:10;2.38;;;1.13;;
80179;SDS011;69505;52.134;5.438;2024-02-16T14:09:37;3.38;;;1.45;;
80179;SDS011;69505;52.134;5.438;2024-02-16T14:12:04;5.35;;;1.45;;
80179;SDS011;69505;52.134;5.438;2024-02-16T14:14:31;2.80;;;1.30;;
80179;SDS011;69505;52.134;5.438;2024-02-16T14:17:03;3.33;;;1.48;;
80179;SDS011;69505;52.134;5.438;2024-02-16T14:19:30;2.53;;;1.38;;
80179;SDS011;69505;52.134;5.438;2024-02-16T14:21:58;4.38;;;1.80;;
80179;SDS011;69505;52.134;5.438;2024-02-16T14:24:24;4.05;;;1.73;;
80179;SDS011;69505;52.134;5.438;2024-02-16T14:26:51;4.05;;;1.80;;
80179;SDS011;69505;52.134;5.438;2024-02-16T14:31:47;2.65;;;1.75;;
80179;SDS011;69505;52.134;5.438;2024-02-16T14:34:15;4.13;;;1.65;;
80179;SDS011;69505;52.134;5.438;2024-02-16T14:36:42;2.83;;;1.70;;
80179;SDS011;69505;52.134;5.438;2024-02-16T14:39:09;5.28;;;2.05;;
80179;SDS011;69505;52.134;5.438;2024-02-16T14:41:38;3.10;;;1.80;;
80179;SDS011;69505;52.134;5.438;2024-02-16T14:44:05;3.00;;;1.88;;
80179;SDS011;69505;52.134;5.438;2024-02-16T14:46:32;3.42;;;2.00;;
80179;SDS011;69505;52.134;5.438;2024-02-16T14:48:58;3.08;;;1.83;;
80179;SDS011;69505;52.134;5.438;2024-02-16T14:51:25;3.80;;;2.03;;
80179;SDS011;69505;52.134;5.438;2024-02-16T14:53:52;3.97;;;1.60;;
80179;SDS011;69505;52.134;5.438;2024-02-16T14:56:19;4.75;;;2.20;;
80179;SDS011;69505;52.134;5.438;2024-02-16T14:58:48;4.75;;;2.20;;
80179;SDS011;69505;52.134;5.438;2024-02-16T15:01:14;3.42;;;1.83;;
80179;SDS011;69505;52.134;5.438;2024-02-16T15:03:42;4.25;;;1.92;;
80179;SDS011;69505;52.134;5.438;2024-02-16T15:06:08;4.25;;;1.67;;
80179;SDS011;69505;52.134;5.438;2024-02-16T15:08:35;4.88;;;1.85;;
80179;SDS011;69505;52.134;5.438;2024-02-16T15:11:02;3.28;;;1.90;;